createdAt,value
2023-01-19T00:00:34.285Z,99137.38
2023-01-19T00:01:36.513Z,99143.88
2023-01-19T00:02:39.020Z,99137.59
2023-01-19T00:03:41.185Z,99139.69
2023-01-19T00:04:43.363Z,99137.00
2023-01-19T00:05:46.102Z,99139.88
2023-01-19T00:06:48.440Z,99140.09
2023-01-19T00:07:50.633Z,99140.94
2023-01-19T00:08:52.806Z,99144.88
2023-01-19T00:09:55.017Z,99139.47
2023-01-19T00:10:57.206Z,99147.59
2023-01-19T00:12:00.254Z,99148.63
2023-01-19T00:13:02.805Z,99152.34
2023-01-19T00:14:05.243Z,99156.06
2023-01-19T00:15:08.187Z,99153.38
2023-01-19T00:16:10.416Z,99153.59
2023-01-19T00:17:12.693Z,99158.16
2023-01-19T00:18:17.462Z,99162.72
2023-01-19T00:19:19.611Z,99155.66
2023-01-19T00:20:21.848Z,99163.13
2023-01-19T00:21:24.766Z,99162.13
2023-01-19T00:22:26.952Z,99160.44
2023-01-19T00:23:29.132Z,99166.88
2023-01-19T00:24:31.415Z,99167.72
2023-01-19T00:25:42.766Z,99167.72
2023-01-19T00:26:45.131Z,99168.97
2023-01-19T00:27:49.531Z,99165.19
2023-01-19T00:28:53.060Z,99168.97
2023-01-19T00:29:55.254Z,99160.00
2023-01-19T00:30:57.453Z,99162.91
2023-01-19T00:32:00.750Z,99160.22
2023-01-19T00:33:03.446Z,99166.44
2023-01-19T00:34:06.547Z,99159.38
2023-01-19T00:35:08.916Z,99160.22
2023-01-19T00:36:11.115Z,99164.78
2023-01-19T00:37:13.289Z,99169.34
2023-01-19T00:38:15.537Z,99159.56
2023-01-19T00:39:17.698Z,99160.63
2023-01-19T00:40:19.953Z,99152.53
2023-01-19T00:41:42.547Z,99155.22
2023-01-19T00:42:44.740Z,99159.97
2023-01-19T00:43:46.958Z,99155.59
2023-01-19T00:44:49.229Z,99159.34
2023-01-19T00:45:51.580Z,99159.34
2023-01-19T00:46:54.056Z,99158.50
2023-01-19T00:47:57.411Z,99156.84
2023-01-19T00:48:59.612Z,99166.84
2023-01-19T00:50:01.904Z,99166.84
2023-01-19T00:51:04.359Z,99175.16
2023-01-19T00:52:06.745Z,99173.47
2023-01-19T00:53:08.978Z,99176.38
2023-01-19T00:54:11.163Z,99177.63
2023-01-19T00:55:15.372Z,99182.16
2023-01-19T00:56:17.912Z,99180.69
2023-01-19T00:57:20.090Z,99188.00
2023-01-19T00:58:22.948Z,99189.22
2023-01-19T00:59:25.943Z,99184.84
2023-01-19T01:00:28.176Z,99191.28
2023-01-19T01:01:45.514Z,99187.97
2023-01-19T01:02:51.338Z,99186.28
2023-01-19T01:03:53.678Z,99193.75
2023-01-19T01:04:56.874Z,99189.41
2023-01-19T01:05:59.579Z,99189.56
2023-01-19T01:07:01.848Z,99194.34
2023-01-19T01:08:04.158Z,99196.19
2023-01-19T01:09:12.140Z,99193.91
2023-01-19T01:10:17.698Z,99194.94
2023-01-19T01:11:19.904Z,99198.69
2023-01-19T01:12:25.514Z,99187.25
2023-01-19T01:13:28.463Z,99192.84
2023-01-19T01:14:31.171Z,99192.00
2023-01-19T01:15:33.488Z,99194.28
2023-01-19T01:16:35.692Z,99183.66
2023-01-19T01:17:46.617Z,99189.06
2023-01-19T01:18:48.940Z,99191.97
2023-01-19T01:19:52.541Z,99194.03
2023-01-19T01:21:04.258Z,99191.53
2023-01-19T01:22:06.947Z,99193.59
2023-01-19T01:23:09.306Z,99194.63
2023-01-19T01:24:11.583Z,99200.22
2023-01-19T01:25:15.624Z,99196.88
2023-01-19T01:26:17.927Z,99196.25
2023-01-19T01:27:20.106Z,99201.00
2023-01-19T01:28:22.304Z,99207.25
2023-01-19T01:29:24.506Z,99201.00
2023-01-19T01:30:26.724Z,99209.31
2023-01-19T01:31:29.078Z,99211.19
2023-01-19T01:32:31.282Z,99202.44
2023-01-19T01:33:40.904Z,99206.16
2023-01-19T01:34:44.081Z,99210.94
2023-01-19T01:35:46.329Z,99210.94
2023-01-19T01:36:48.512Z,99208.41
2023-01-19T01:37:50.674Z,99206.78
2023-01-19T01:38:52.850Z,99206.94
2023-01-19T01:39:55.145Z,99207.16
2023-01-19T01:40:57.412Z,99209.22
2023-01-19T01:41:59.614Z,99202.16
2023-01-19T01:43:02.976Z,99204.00
2023-01-19T01:44:49.819Z,99204.19
2023-01-19T01:45:54.018Z,99201.91
2023-01-19T01:46:57.293Z,99206.66
2023-01-19T01:48:09.190Z,99205.00
2023-01-19T01:49:16.361Z,99198.75
2023-01-19T01:50:25.373Z,99204.34
2023-01-19T01:51:34.702Z,99209.28
2023-01-19T01:52:43.957Z,99203.06
2023-01-19T01:54:18.105Z,99201.41
2023-01-19T01:55:23.204Z,99206.16
2023-01-19T01:56:32.665Z,99199.09
2023-01-19T01:57:39.327Z,99202.81
2023-01-19T01:58:42.107Z,99210.06
2023-01-19T01:59:48.060Z,99210.28
2023-01-19T02:01:08.712Z,99205.28
2023-01-19T02:02:36.931Z,99215.22
2023-01-19T02:03:39.493Z,99214.38
2023-01-19T02:04:46.869Z,99222.69
2023-01-19T02:05:51.932Z,99219.16
2023-01-19T02:07:12.890Z,99219.16
2023-01-19T02:08:43.696Z,99230.13
2023-01-19T02:10:04.612Z,99229.31
2023-01-19T02:11:29.502Z,99238.41
2023-01-19T02:12:51.078Z,99222.44
2023-01-19T02:13:53.588Z,99225.13
2023-01-19T02:14:55.840Z,99235.25
2023-01-19T02:16:01.169Z,99235.25
2023-01-19T02:17:06.232Z,99237.16
2023-01-19T02:18:08.525Z,99235.47
2023-01-19T02:19:18.960Z,99236.47
2023-01-19T02:20:23.867Z,99234.66
2023-01-19T02:21:43.053Z,99236.47
2023-01-19T02:22:52.114Z,99230.47
2023-01-19T02:23:56.865Z,99235.00
2023-01-19T02:24:59.214Z,99237.91
2023-01-19T02:26:02.470Z,99241.25
2023-01-19T02:27:06.001Z,99242.47
2023-01-19T02:28:08.238Z,99248.69
2023-01-19T02:29:18.038Z,99250.56
2023-01-19T02:30:20.296Z,99250.78
2023-01-19T02:31:22.530Z,99259.69
2023-01-19T02:32:24.835Z,99254.50
2023-01-19T02:33:27.237Z,99249.09
2023-01-19T02:34:30.272Z,99256.34
2023-01-19T02:35:33.054Z,99258.22
2023-01-19T02:36:41.075Z,99256.34
2023-01-19T02:37:45.155Z,99249.28
2023-01-19T02:38:51.262Z,99255.69
2023-01-19T02:39:58.059Z,99253.00
2023-01-19T02:41:02.827Z,99252.16
2023-01-19T02:42:13.074Z,99253.19
2023-01-19T02:43:18.301Z,99251.53
2023-01-19T02:44:23.014Z,99256.91
2023-01-19T02:45:25.295Z,99256.06
2023-01-19T02:46:27.584Z,99250.88
2023-01-19T02:47:38.837Z,99249.03
2023-01-19T02:48:42.015Z,99252.09
2023-01-19T02:49:44.209Z,99250.25
2023-01-19T02:50:53.125Z,99247.53
2023-01-19T02:51:55.500Z,99251.06
2023-01-19T02:53:06.448Z,99245.88
2023-01-19T02:54:22.611Z,99245.06
2023-01-19T02:55:28.269Z,99249.78
2023-01-19T02:56:57.825Z,99249.78
2023-01-19T02:58:23.259Z,99244.38
2023-01-19T03:00:13.430Z,99240.88
2023-01-19T03:01:27.056Z,99243.72
2023-01-19T03:02:44.288Z,99245.59
2023-01-19T03:04:09.700Z,99240.41
2023-01-19T03:05:42.713Z,99253.03
2023-01-19T03:06:50.263Z,99247.03
2023-01-19T03:08:21.843Z,99244.53
2023-01-19T03:09:35.175Z,99247.22
2023-01-19T03:11:06.790Z,99252.78
2023-01-19T03:12:22.595Z,99252.97
2023-01-19T03:13:35.585Z,99255.03
2023-01-19T03:14:45.035Z,99253.38
2023-01-19T03:15:52.503Z,99256.25
2023-01-19T03:16:59.449Z,99254.78
2023-01-19T03:18:03.436Z,99252.28
2023-01-19T03:19:28.412Z,99250.59
2023-01-19T03:20:30.721Z,99257.84
2023-01-19T03:21:36.498Z,99262.41
2023-01-19T03:22:39.513Z,99268.19
2023-01-19T03:23:44.792Z,99253.84
2023-01-19T03:24:48.253Z,99264.00
2023-01-19T03:25:54.183Z,99267.53
2023-01-19T03:27:02.169Z,99259.63
2023-01-19T03:28:05.580Z,99266.03
2023-01-19T03:29:10.299Z,99271.44
2023-01-19T03:30:18.758Z,99271.81
2023-01-19T03:31:26.215Z,99266.44
2023-01-19T03:32:37.136Z,99272.84
2023-01-19T03:33:43.461Z,99266.78
2023-01-19T03:34:49.454Z,99273.19
2023-01-19T03:35:57.129Z,99263.47
2023-01-19T03:37:03.240Z,99273.38
2023-01-19T03:38:09.898Z,99278.97
2023-01-19T03:39:15.690Z,99276.47
2023-01-19T03:40:17.996Z,99278.34
2023-01-19T03:41:24.398Z,99276.47
2023-01-19T03:42:28.573Z,99279.16
2023-01-19T03:43:32.704Z,99276.28
2023-01-19T03:44:40.422Z,99278.16
2023-01-19T03:45:43.698Z,99273.78
2023-01-19T03:46:48.169Z,99272.97
2023-01-19T03:47:50.830Z,99271.91
2023-01-19T03:48:53.607Z,99278.16
2023-01-19T03:49:56.820Z,99274.78
2023-01-19T03:51:04.066Z,99277.13
2023-01-19T03:52:06.493Z,99282.13
2023-01-19T03:53:11.549Z,99276.75
2023-01-19T03:54:16.204Z,99275.53
2023-01-19T03:55:18.417Z,99277.38
2023-01-19T03:56:23.242Z,99282.59
2023-01-19T03:57:25.452Z,99281.56
2023-01-19T03:58:28.429Z,99286.78
2023-01-19T03:59:30.628Z,99282.03
2023-01-19T04:00:34.029Z,99280.19
2023-01-19T04:01:36.346Z,99286.41
2023-01-19T04:02:38.668Z,99288.91
2023-01-19T04:03:41.858Z,99290.38
2023-01-19T04:04:44.103Z,99296.63
2023-01-19T04:05:46.864Z,99291.03
2023-01-19T04:06:49.126Z,99293.75
2023-01-19T04:07:52.489Z,99296.25
2023-01-19T04:08:54.940Z,99293.53
2023-01-19T04:09:58.397Z,99292.53
2023-01-19T04:11:00.772Z,99289.63
2023-01-19T04:12:03.921Z,99285.91
2023-01-19T04:13:06.715Z,99290.25
2023-01-19T04:14:09.041Z,99291.94
2023-01-19T04:15:11.773Z,99290.09
2023-01-19T04:16:20.908Z,99288.41
2023-01-19T04:17:23.157Z,99291.94
2023-01-19T04:18:25.349Z,99288.03
2023-01-19T04:19:27.606Z,99285.34
2023-01-19T04:20:30.074Z,99287.84
2023-01-19T04:21:32.253Z,99283.28
2023-01-19T04:22:34.701Z,99284.97
2023-01-19T04:23:37.072Z,99287.47
2023-01-19T04:24:39.242Z,99289.16
2023-01-19T04:25:41.449Z,99282.72
2023-01-19T04:26:43.975Z,99288.75
2023-01-19T04:27:46.198Z,99287.94
2023-01-19T04:28:48.635Z,99286.06
2023-01-19T04:29:52.556Z,99294.16
2023-01-19T04:30:55.000Z,99285.88
2023-01-19T04:31:57.590Z,99285.25
2023-01-19T04:33:00.329Z,99288.56
2023-01-19T04:34:03.507Z,99287.56
2023-01-19T04:35:06.079Z,99284.66
2023-01-19T04:36:08.824Z,99285.50
2023-01-19T04:37:11.113Z,99286.34
2023-01-19T04:38:13.587Z,99285.31
2023-01-19T04:39:16.745Z,99280.53
2023-01-19T04:40:18.997Z,99286.78
2023-01-19T04:41:21.441Z,99283.03
2023-01-19T04:42:24.721Z,99288.28
2023-01-19T04:43:26.884Z,99280.19
2023-01-19T04:44:29.025Z,99280.19
2023-01-19T04:45:31.224Z,99280.19
2023-01-19T04:46:33.551Z,99286.19
2023-01-19T04:47:35.754Z,99286.19
2023-01-19T04:48:40.115Z,99291.41
2023-01-19T04:49:43.463Z,99291.41
2023-01-19T04:50:46.022Z,99288.53
2023-01-19T04:51:48.276Z,99297.47
2023-01-19T04:52:51.051Z,99296.63
2023-01-19T04:53:53.265Z,99299.97
2023-01-19T04:54:55.597Z,99297.25
2023-01-19T04:55:59.790Z,99296.25
2023-01-19T04:57:02.042Z,99288.97
2023-01-19T04:58:04.424Z,99292.53
2023-01-19T04:59:07.216Z,99291.66
2023-01-19T05:00:10.445Z,99289.81
2023-01-19T05:01:12.689Z,99303.94
2023-01-19T05:02:15.055Z,99288.81
2023-01-19T05:03:19.598Z,99296.91
2023-01-19T05:04:22.535Z,99293.34
2023-01-19T05:05:25.328Z,99287.94
2023-01-19T05:06:27.843Z,99288.59
2023-01-19T05:07:30.194Z,99289.44
2023-01-19T05:08:32.392Z,99292.78
2023-01-19T05:09:35.505Z,99288.59
2023-01-19T05:10:37.714Z,99298.38
2023-01-19T05:11:40.108Z,99291.31
2023-01-19T05:12:42.386Z,99292.13
2023-01-19T05:13:44.566Z,99288.81
2023-01-19T05:14:46.836Z,99294.81
2023-01-19T05:15:49.184Z,99300.22
2023-01-19T05:16:52.592Z,99293.16
2023-01-19T05:17:55.346Z,99295.84
2023-01-19T05:18:57.505Z,99292.31
2023-01-19T05:19:59.700Z,99295.84
2023-01-19T05:21:05.093Z,99293.53
2023-01-19T05:22:07.402Z,99293.53
2023-01-19T05:23:09.752Z,99281.72
2023-01-19T05:24:11.947Z,99284.63
2023-01-19T05:25:14.187Z,99279.03
2023-01-19T05:26:16.826Z,99280.06
2023-01-19T05:27:19.067Z,99281.94
2023-01-19T05:28:21.826Z,99285.44
2023-01-19T05:29:24.175Z,99287.31
2023-01-19T05:30:26.501Z,99282.94
2023-01-19T05:31:28.716Z,99281.94
2023-01-19T05:32:34.659Z,99286.47
2023-01-19T05:33:36.854Z,99280.25
2023-01-19T05:34:39.550Z,99282.94
2023-01-19T05:35:41.978Z,99281.06
2023-01-19T05:36:44.239Z,99279.59
2023-01-19T05:37:48.953Z,99277.75
2023-01-19T05:38:51.204Z,99277.75
2023-01-19T05:39:56.417Z,99285.00
2023-01-19T05:40:59.117Z,99287.69
2023-01-19T05:42:01.292Z,99285.84
2023-01-19T05:43:05.440Z,99277.91
2023-01-19T05:44:09.757Z,99288.72
2023-01-19T05:45:12.607Z,99285.19
2023-01-19T05:46:14.890Z,99281.81
2023-01-19T05:47:17.121Z,99287.22
2023-01-19T05:48:19.391Z,99288.28
2023-01-19T05:49:21.729Z,99282.03
2023-01-19T05:50:23.933Z,99286.41
2023-01-19T05:51:26.119Z,99285.75
2023-01-19T05:52:28.290Z,99279.31
2023-01-19T05:53:30.603Z,99283.91
2023-01-19T05:54:32.919Z,99281.19
2023-01-19T05:55:35.258Z,99281.19
2023-01-19T05:56:39.491Z,99280.34
2023-01-19T05:57:43.229Z,99275.16
2023-01-19T05:58:45.780Z,99277.84
2023-01-19T05:59:48.111Z,99278.91
2023-01-19T06:00:50.288Z,99270.81
2023-01-19T06:01:53.210Z,99273.66
2023-01-19T06:02:55.519Z,99281.59
2023-01-19T06:03:57.822Z,99277.41
2023-01-19T06:05:00.098Z,99276.56
2023-01-19T06:06:03.827Z,99272.19
2023-01-19T06:07:07.050Z,99274.06
2023-01-19T06:08:09.232Z,99275.94
2023-01-19T06:09:11.505Z,99274.25
2023-01-19T06:10:13.828Z,99284.19
2023-01-19T06:11:16.116Z,99272.78
2023-01-19T06:12:18.583Z,99275.47
2023-01-19T06:13:21.513Z,99273.78
2023-01-19T06:14:23.941Z,99281.06
2023-01-19T06:15:26.121Z,99282.91
2023-01-19T06:16:28.570Z,99275.00
2023-01-19T06:17:34.766Z,99275.22
2023-01-19T06:18:37.270Z,99272.72
2023-01-19T06:19:42.490Z,99278.91
2023-01-19T06:20:44.672Z,99279.94
2023-01-19T06:21:52.609Z,99287.22
2023-01-19T06:22:57.749Z,99287.41
2023-01-19T06:24:00.165Z,99300.03
2023-01-19T06:25:03.008Z,99288.63
2023-01-19T06:26:05.639Z,99295.22
2023-01-19T06:27:08.172Z,99293.53
2023-01-19T06:28:10.364Z,99297.91
2023-01-19T06:29:12.730Z,99304.34
2023-01-19T06:30:15.138Z,99306.19
2023-01-19T06:31:17.319Z,99305.53
2023-01-19T06:32:20.259Z,99311.75
2023-01-19T06:33:24.484Z,99317.16
2023-01-19T06:34:29.130Z,99310.13
2023-01-19T06:35:31.438Z,99309.06
2023-01-19T06:36:33.739Z,99316.13
2023-01-19T06:37:36.972Z,99309.91
2023-01-19T06:38:39.215Z,99317.81
2023-01-19T06:39:42.469Z,99321.34
2023-01-19T06:40:46.216Z,99321.34
2023-01-19T06:41:48.399Z,99321.34
2023-01-19T06:42:50.641Z,99322.38
2023-01-19T06:43:55.345Z,99334.00
2023-01-19T06:44:57.605Z,99326.91
2023-01-19T06:46:00.821Z,99331.09
2023-01-19T06:47:16.032Z,99330.47
2023-01-19T06:48:18.921Z,99340.22
2023-01-19T06:49:21.084Z,99339.19
2023-01-19T06:50:24.611Z,99336.69
2023-01-19T06:51:27.113Z,99344.59
2023-01-19T06:52:29.499Z,99337.97
2023-01-19T06:53:31.743Z,99336.97
2023-01-19T06:54:33.943Z,99335.09
2023-01-19T06:55:36.594Z,99336.97
2023-01-19T06:56:38.891Z,99342.97
2023-01-19T06:57:41.156Z,99341.34
2023-01-19T06:58:43.464Z,99345.06
2023-01-19T06:59:45.665Z,99341.34
2023-01-19T07:00:49.124Z,99337.78
2023-01-19T07:01:51.448Z,99343.19
2023-01-19T07:02:53.742Z,99341.50
2023-01-19T07:03:56.047Z,99345.88
2023-01-19T07:04:58.210Z,99348.56
2023-01-19T07:06:06.895Z,99337.78
2023-01-19T07:07:09.141Z,99343.84
2023-01-19T07:08:11.333Z,99353.78
2023-01-19T07:09:16.192Z,99347.56
2023-01-19T07:10:19.128Z,99346.53
2023-01-19T07:11:24.639Z,99342.97
2023-01-19T07:12:31.122Z,99342.16
2023-01-19T07:13:34.824Z,99348.56
2023-01-19T07:14:37.394Z,99339.66
2023-01-19T07:15:39.866Z,99340.47
2023-01-19T07:16:44.747Z,99351.28
2023-01-19T07:17:46.965Z,99342.75
2023-01-19T07:18:50.250Z,99347.94
2023-01-19T07:19:52.427Z,99343.56
2023-01-19T07:20:57.905Z,99352.47
2023-01-19T07:22:02.469Z,99351.66
2023-01-19T07:23:04.947Z,99345.44
2023-01-19T07:24:07.201Z,99358.06
2023-01-19T07:25:09.920Z,99358.25
2023-01-19T07:26:15.446Z,99358.25
2023-01-19T07:27:17.749Z,99341.25
2023-01-19T07:28:21.066Z,99356.56
2023-01-19T07:29:23.328Z,99358.25
2023-01-19T07:30:25.765Z,99361.97
2023-01-19T07:31:28.179Z,99361.97
2023-01-19T07:32:30.813Z,99363.66
2023-01-19T07:33:36.061Z,99369.88
2023-01-19T07:34:38.386Z,99366.34
2023-01-19T07:35:40.518Z,99360.28
2023-01-19T07:36:42.737Z,99361.16
2023-01-19T07:37:44.946Z,99364.47
2023-01-19T07:38:47.173Z,99371.94
2023-01-19T07:39:49.416Z,99370.06
2023-01-19T07:40:51.586Z,99371.75
2023-01-19T07:41:53.978Z,99371.75
2023-01-19T07:42:58.860Z,99368.22
2023-01-19T07:44:01.279Z,99370.25
2023-01-19T07:45:04.378Z,99374.44
2023-01-19T07:46:10.966Z,99369.03
2023-01-19T07:47:13.255Z,99374.25
2023-01-19T07:48:15.478Z,99375.47
2023-01-19T07:49:17.729Z,99380.66
2023-01-19T07:50:24.544Z,99379.63
2023-01-19T07:51:28.499Z,99376.94
2023-01-19T07:52:30.691Z,99373.22
2023-01-19T07:53:33.001Z,99372.22
2023-01-19T07:54:35.190Z,99378.25
2023-01-19T07:55:37.605Z,99374.53
2023-01-19T07:56:39.738Z,99379.09
2023-01-19T07:57:41.867Z,99387.81
2023-01-19T07:58:44.046Z,99379.09
2023-01-19T07:59:46.272Z,99385.13
2023-01-19T08:00:48.503Z,99392.84
2023-01-19T08:01:50.967Z,99381.22
2023-01-19T08:02:54.048Z,99382.88
2023-01-19T08:03:56.232Z,99383.56
2023-01-19T08:04:58.416Z,99387.53
2023-01-19T08:06:00.725Z,99387.34
2023-01-19T08:07:03.909Z,99395.72
2023-01-19T08:08:07.496Z,99387.63
2023-01-19T08:09:10.182Z,99387.44
2023-01-19T08:10:14.950Z,99397.00
2023-01-19T08:11:17.169Z,99390.59
2023-01-19T08:12:19.356Z,99397.66
2023-01-19T08:13:21.564Z,99394.38
2023-01-19T08:14:23.743Z,99395.69
2023-01-19T08:15:26.237Z,99394.94
2023-01-19T08:16:28.527Z,99392.69
2023-01-19T08:17:30.752Z,99400.88
2023-01-19T08:18:33.161Z,99403.44
2023-01-19T08:19:35.327Z,99392.91
2023-01-19T08:20:38.041Z,99403.59
2023-01-19T08:21:40.243Z,99396.22
2023-01-19T08:22:42.424Z,99397.31
2023-01-19T08:23:44.609Z,99396.53
2023-01-19T08:24:48.947Z,99396.41
2023-01-19T08:25:52.399Z,99388.19
2023-01-19T08:27:01.823Z,99404.06
2023-01-19T08:28:06.197Z,99404.13
2023-01-19T08:29:08.343Z,99399.59
2023-01-19T08:30:11.191Z,99400.50
2023-01-19T08:31:20.424Z,99406.59
2023-01-19T08:32:23.970Z,99406.47
2023-01-19T08:33:26.235Z,99405.22
2023-01-19T08:34:31.288Z,99401.34
2023-01-19T08:35:45.862Z,99412.84
2023-01-19T08:36:48.093Z,99406.63
2023-01-19T08:37:51.497Z,99406.50
2023-01-19T08:38:53.836Z,99414.63
2023-01-19T08:39:56.020Z,99409.25
2023-01-19T08:40:58.238Z,99413.69
2023-01-19T08:42:00.883Z,99407.28
2023-01-19T08:43:07.922Z,99408.97
2023-01-19T08:44:10.119Z,99416.09
2023-01-19T08:45:12.856Z,99415.09
2023-01-19T08:46:17.704Z,99414.06
2023-01-19T08:47:20.184Z,99419.50
2023-01-19T08:48:23.684Z,99415.59
2023-01-19T08:49:25.912Z,99420.59
2023-01-19T08:50:30.169Z,99411.44
2023-01-19T08:51:32.472Z,99413.34
2023-01-19T08:52:34.680Z,99409.63
2023-01-19T08:53:36.806Z,99410.25
2023-01-19T08:54:38.997Z,99411.09
2023-01-19T08:55:41.645Z,99412.78
2023-01-19T08:56:44.719Z,99408.00
2023-01-19T08:57:53.715Z,99409.03
2023-01-19T08:59:08.125Z,99407.97
2023-01-19T09:00:12.304Z,99403.41
2023-01-19T09:01:17.152Z,99413.22
2023-01-19T09:02:19.445Z,99410.28
2023-01-19T09:03:22.897Z,99411.94
2023-01-19T09:04:27.507Z,99409.22
2023-01-19T09:05:36.374Z,99402.72
2023-01-19T09:06:38.566Z,99412.53
2023-01-19T09:07:41.838Z,99407.09
2023-01-19T09:08:46.271Z,99405.19
2023-01-19T09:09:48.439Z,99404.97
2023-01-19T09:10:51.564Z,99408.50
2023-01-19T09:11:54.724Z,99410.56
2023-01-19T09:12:57.508Z,99416.59
2023-01-19T09:13:59.682Z,99412.81
2023-01-19T09:15:01.808Z,99413.81
2023-01-19T09:16:04.598Z,99415.47
2023-01-19T09:17:08.538Z,99411.66
2023-01-19T09:18:16.676Z,99416.84
2023-01-19T09:19:18.985Z,99412.44
2023-01-19T09:20:21.270Z,99405.91
2023-01-19T09:21:23.496Z,99412.13
2023-01-19T09:22:25.686Z,99409.13
2023-01-19T09:23:28.501Z,99407.44
2023-01-19T09:24:30.693Z,99402.78
2023-01-19T09:25:33.065Z,99406.31
2023-01-19T09:26:36.665Z,99408.97
2023-01-19T09:27:38.886Z,99415.78
2023-01-19T09:28:41.116Z,99414.91
2023-01-19T09:29:50.314Z,99412.97
2023-01-19T09:30:52.660Z,99407.50
2023-01-19T09:31:55.811Z,99413.47
2023-01-19T09:33:02.988Z,99409.41
2023-01-19T09:34:05.224Z,99403.06
2023-01-19T09:35:07.662Z,99407.38
2023-01-19T09:36:10.828Z,99407.31
2023-01-19T09:37:13.834Z,99409.97
2023-01-19T09:38:16.980Z,99411.56
2023-01-19T09:39:19.316Z,99406.88
2023-01-19T09:40:21.552Z,99412.03
2023-01-19T09:41:26.138Z,99411.94
2023-01-19T09:42:44.467Z,99405.75
2023-01-19T09:44:00.798Z,99408.16
2023-01-19T09:45:07.329Z,99394.44
2023-01-19T09:46:17.651Z,99402.06
2023-01-19T09:47:24.977Z,99398.19
2023-01-19T09:48:48.100Z,99399.78
2023-01-19T09:49:58.386Z,99403.84
2023-01-19T09:51:05.998Z,99401.00
2023-01-19T09:52:13.438Z,99404.50
2023-01-19T09:53:42.025Z,99398.94
2023-01-19T09:54:54.579Z,99395.63
2023-01-19T09:55:56.788Z,99387.00
2023-01-19T09:56:59.011Z,99389.63
2023-01-19T09:58:01.669Z,99393.31
2023-01-19T09:59:31.875Z,99391.56
2023-01-19T10:00:34.125Z,99388.09
2023-01-19T10:01:42.710Z,99384.88
2023-01-19T10:03:07.556Z,99383.69
2023-01-19T10:04:40.254Z,99379.22
2023-01-19T10:05:51.732Z,99387.78
2023-01-19T10:07:18.856Z,99379.66
2023-01-19T10:08:45.770Z,99380.63
2023-01-19T10:10:19.167Z,99380.75
2023-01-19T10:11:52.646Z,99385.28
2023-01-19T10:13:01.464Z,99384.53
2023-01-19T10:14:19.521Z,99380.25
2023-01-19T10:15:38.098Z,99379.31
2023-01-19T10:16:42.479Z,99382.41
2023-01-19T10:18:09.689Z,99381.66
2023-01-19T10:19:23.588Z,99374.19
2023-01-19T10:20:35.213Z,99383.31
2023-01-19T10:21:44.883Z,99381.53
2023-01-19T10:22:50.000Z,99375.31
2023-01-19T10:23:52.671Z,99374.59
2023-01-19T10:25:11.639Z,99374.72
2023-01-19T10:26:36.414Z,99377.31
2023-01-19T10:27:38.743Z,99380.38
2023-01-19T10:28:41.883Z,99375.84
2023-01-19T10:29:47.464Z,99371.28
2023-01-19T10:30:52.007Z,99378.78
2023-01-19T10:32:10.349Z,99370.66
2023-01-19T10:33:13.807Z,99379.78
2023-01-19T10:34:21.542Z,99379.06
2023-01-19T10:35:25.758Z,99369.03
2023-01-19T10:36:37.034Z,99371.63
2023-01-19T10:37:42.084Z,99371.72
2023-01-19T10:38:44.675Z,99380.00
2023-01-19T10:39:53.727Z,99371.06
2023-01-19T10:41:05.029Z,99371.97
2023-01-19T10:42:15.381Z,99364.44
2023-01-19T10:43:37.784Z,99367.25
2023-01-19T10:44:40.010Z,99372.25
2023-01-19T10:45:42.353Z,99366.84
2023-01-19T10:46:48.020Z,99371.56
2023-01-19T10:47:53.833Z,99366.69
2023-01-19T10:48:56.303Z,99370.59
2023-01-19T10:49:58.590Z,99370.69
2023-01-19T10:51:05.198Z,99372.34
2023-01-19T10:52:19.187Z,99360.88
2023-01-19T10:53:22.820Z,99364.22
2023-01-19T10:54:30.974Z,99368.94
2023-01-19T10:55:38.296Z,99356.63
2023-01-19T10:56:41.078Z,99363.53
2023-01-19T10:57:43.635Z,99363.31
2023-01-19T10:58:48.414Z,99364.44
2023-01-19T10:59:53.259Z,99362.28
2023-01-19T11:00:55.674Z,99363.94
2023-01-19T11:02:10.009Z,99365.94
2023-01-19T11:03:23.816Z,99363.75
2023-01-19T11:04:29.947Z,99364.34
2023-01-19T11:05:33.794Z,99364.91
2023-01-19T11:06:36.043Z,99370.38
2023-01-19T11:07:38.254Z,99370.72
2023-01-19T11:08:41.253Z,99372.38
2023-01-19T11:09:43.479Z,99368.31
2023-01-19T11:10:53.508Z,99367.78
2023-01-19T11:11:56.328Z,99374.94
2023-01-19T11:13:12.749Z,99368.94
2023-01-19T11:14:19.738Z,99369.53
2023-01-19T11:15:28.337Z,99368.44
2023-01-19T11:16:34.921Z,99377.22
2023-01-19T11:17:48.361Z,99368.50
2023-01-19T11:18:56.320Z,99371.81
2023-01-19T11:20:01.078Z,99370.47
2023-01-19T11:21:12.286Z,99364.50
2023-01-19T11:22:22.369Z,99355.19
2023-01-19T11:23:43.415Z,99360.16
2023-01-19T11:24:45.689Z,99359.09
2023-01-19T11:25:50.289Z,99363.22
2023-01-19T11:27:03.127Z,99358.31
2023-01-19T11:28:05.649Z,99364.38
2023-01-19T11:29:28.145Z,99361.13
2023-01-19T11:30:31.903Z,99364.94
2023-01-19T11:31:38.230Z,99366.59
2023-01-19T11:32:41.301Z,99367.44
2023-01-19T11:33:50.933Z,99360.84
2023-01-19T11:34:53.241Z,99358.13
2023-01-19T11:36:03.132Z,99359.78
2023-01-19T11:37:27.247Z,99365.25
2023-01-19T11:38:29.534Z,99354.56
2023-01-19T11:39:46.663Z,99354.28
2023-01-19T11:40:58.475Z,99350.72
2023-01-19T11:42:06.404Z,99359.44
2023-01-19T11:43:13.483Z,99356.72
2023-01-19T11:44:24.289Z,99359.44
2023-01-19T11:45:26.983Z,99355.06
2023-01-19T11:46:33.767Z,99355.06
2023-01-19T11:47:54.861Z,99352.81
2023-01-19T11:49:03.543Z,99359.38
2023-01-19T11:50:22.598Z,99354.41
2023-01-19T11:51:31.259Z,99358.50
2023-01-19T11:52:43.246Z,99351.06
2023-01-19T11:53:53.345Z,99357.63
2023-01-19T11:55:34.212Z,99354.88
2023-01-19T11:56:36.870Z,99350.16
2023-01-19T11:57:46.005Z,99353.16
2023-01-19T11:58:48.288Z,99355.31
2023-01-19T11:59:53.224Z,99359.38
2023-01-19T12:01:35.652Z,99356.34
2023-01-19T12:02:47.774Z,99365.03
2023-01-19T12:04:14.414Z,99362.81
2023-01-19T12:05:20.039Z,99355.59
2023-01-19T12:06:30.117Z,99360.53
2023-01-19T12:07:37.103Z,99354.13
2023-01-19T12:08:50.118Z,99349.97
2023-01-19T12:09:58.706Z,99360.59
2023-01-19T12:11:03.036Z,99365.44
2023-01-19T12:12:10.599Z,99364.84
2023-01-19T12:13:20.907Z,99363.69
2023-01-19T12:14:35.201Z,99363.38
2023-01-19T12:15:42.181Z,99363.28
2023-01-19T12:16:46.248Z,99357.75
2023-01-19T12:17:56.247Z,99362.66
2023-01-19T12:19:04.504Z,99355.13
2023-01-19T12:20:30.259Z,99370.16
2023-01-19T12:21:32.531Z,99365.69
2023-01-19T12:22:49.509Z,99361.53
2023-01-19T12:24:01.450Z,99357.63
2023-01-19T12:25:19.211Z,99363.59
2023-01-19T12:26:42.843Z,99357.22
2023-01-19T12:27:48.564Z,99357.69
2023-01-19T12:28:53.133Z,99358.19
2023-01-19T12:29:55.466Z,99357.28
2023-01-19T12:31:00.465Z,99351.47
2023-01-19T12:32:18.169Z,99351.13
2023-01-19T12:33:40.049Z,99349.97
2023-01-19T12:34:50.237Z,99359.75
2023-01-19T12:36:01.088Z,99360.22
2023-01-19T12:37:07.133Z,99361.00
2023-01-19T12:38:39.505Z,99354.09
2023-01-19T12:39:48.967Z,99358.41
2023-01-19T12:40:51.219Z,99358.06
2023-01-19T12:42:06.731Z,99361.03
2023-01-19T12:43:16.562Z,99354.63
2023-01-19T12:44:24.736Z,99356.78
2023-01-19T12:45:52.982Z,99350.97
2023-01-19T12:46:55.232Z,99354.47
2023-01-19T12:47:57.849Z,99352.19
2023-01-19T12:49:06.975Z,99358.72
2023-01-19T12:50:16.944Z,99362.78
2023-01-19T12:51:26.797Z,99354.47
2023-01-19T12:52:36.056Z,99362.94
2023-01-19T12:53:38.365Z,99360.69
2023-01-19T12:54:49.710Z,99361.75